sensor_id;sensor_type;location;lat;lon;timestamp;P1;durP1;ratioP1;P2;durP2;ratioP2
1505;SDS011;744;51.436;7.356;2023-06-01T00:02:42;7.87;;;2.70;;
1505;SDS011;744;51.436;7.356;2023-06-01T00:05:10;8.83;;;2.70;;
1505;SDS011;744;51.436;7.356;2023-06-01T00:07:41;3.53;;;2.10;;
1505;SDS011;744;51.436;7.356;2023-06-01T00:10:10;13.53;;;3.17;;
1505;SDS011;744;51.436;7.356;2023-06-01T00:12:41;4.97;;;3.50;;
1505;SDS011;744;51.436;7.356;2023-06-01T00:15:09;3.30;;;2.37;;
1505;SDS011;744;51.436;7.356;2023-06-01T00:17:36;3.10;;;2.50;;
1505;SDS011;744;51.436;7.356;2023-06-01T00:20:06;3.50;;;3.20;;
1505;SDS011;744;51.436;7.356;2023-06-01T00:22:40;4.07;;;2.60;;
1505;SDS011;744;51.436;7.356;2023-06-01T00:25:09;5.40;;;3.10;;
1505;SDS011;744;51.436;7.356;2023-06-01T00:27:37;4.27;;;2.80;;
1505;SDS011;744;51.436;7.356;2023-06-01T00:30:04;4.23;;;3.10;;
1505;SDS011;744;51.436;7.356;2023-06-01T00:32:31;5.07;;;3.20;;
1505;SDS011;744;51.436;7.356;2023-06-01T00:35:00;7.07;;;3.50;;
1505;SDS011;744;51.436;7.356;2023-06-01T00:37:29;3.27;;;2.93;;
1505;SDS011;744;51.436;7.356;2023-06-01T00:39:58;5.50;;;3.77;;
1505;SDS011;744;51.436;7.356;2023-06-01T00:42:25;5.53;;;3.50;;
1505;SDS011;744;51.436;7.356;2023-06-01T00:44:53;5.80;;;3.43;;
1505;SDS011;744;51.436;7.356;2023-06-01T00:47:20;6.67;;;3.53;;
1505;SDS011;744;51.436;7.356;2023-06-01T00:53:55;7.27;;;4.57;;
1505;SDS011;744;51.436;7.356;2023-06-01T00:56:25;7.00;;;4.77;;
1505;SDS011;744;51.436;7.356;2023-06-01T00:58:53;6.13;;;5.00;;
1505;SDS011;744;51.436;7.356;2023-06-01T01:01:22;9.00;;;5.70;;
1505;SDS011;744;51.436;7.356;2023-06-01T01:03:51;8.40;;;6.20;;
1505;SDS011;744;51.436;7.356;2023-06-01T01:09:06;6.80;;;5.07;;
1505;SDS011;744;51.436;7.356;2023-06-01T01:12:07;11.67;;;6.20;;
1505;SDS011;744;51.436;7.356;2023-06-01T01:14:50;8.13;;;5.37;;
1505;SDS011;744;51.436;7.356;2023-06-01T01:17:44;8.13;;;6.00;;
1505;SDS011;744;51.436;7.356;2023-06-01T01:20:17;7.83;;;6.30;;
1505;SDS011;744;51.436;7.356;2023-06-01T01:26:00;6.90;;;5.73;;
1505;SDS011;744;51.436;7.356;2023-06-01T01:32:17;6.90;;;6.20;;
1505;SDS011;744;51.436;7.356;2023-06-01T01:34:46;7.37;;;6.67;;
1505;SDS011;744;51.436;7.356;2023-06-01T01:37:14;7.37;;;6.67;;
1505;SDS011;744;51.436;7.356;2023-06-01T01:39:41;8.63;;;6.33;;
1505;SDS011;744;51.436;7.356;2023-06-01T01:42:08;9.00;;;6.33;;
1505;SDS011;744;51.436;7.356;2023-06-01T01:44:35;9.07;;;7.40;;
1505;SDS011;744;51.436;7.356;2023-06-01T01:47:47;10.63;;;6.57;;
1505;SDS011;744;51.436;7.356;2023-06-01T01:50:04;11.20;;;6.63;;
1505;SDS011;744;51.436;7.356;2023-06-01T02:00:47;9.23;;;7.23;;
1505;SDS011;744;51.436;7.356;2023-06-01T02:03:16;21.13;;;7.47;;
1505;SDS011;744;51.436;7.356;2023-06-01T02:05:47;15.23;;;7.90;;
1505;SDS011;744;51.436;7.356;2023-06-01T02:08:13;8.77;;;6.90;;
1505;SDS011;744;51.436;7.356;2023-06-01T02:10:43;8.67;;;7.50;;
1505;SDS011;744;51.436;7.356;2023-06-01T02:13:10;9.47;;;7.50;;
1505;SDS011;744;51.436;7.356;2023-06-01T02:15:37;14.03;;;8.77;;
1505;SDS011;744;51.436;7.356;2023-06-01T02:18:04;10.30;;;7.57;;
1505;SDS011;744;51.436;7.356;2023-06-01T02:20:31;10.37;;;7.27;;
1505;SDS011;744;51.436;7.356;2023-06-01T02:22:58;12.73;;;8.47;;
1505;SDS011;744;51.436;7.356;2023-06-01T02:25:25;13.53;;;7.93;;
1505;SDS011;744;51.436;7.356;2023-06-01T02:27:52;13.80;;;8.00;;
1505;SDS011;744;51.436;7.356;2023-06-01T02:34:01;10.93;;;7.70;;
1505;SDS011;744;51.436;7.356;2023-06-01T02:36:28;9.87;;;7.70;;
1505;SDS011;744;51.436;7.356;2023-06-01T02:38:55;11.30;;;8.43;;
1505;SDS011;744;51.436;7.356;2023-06-01T02:41:23;13.47;;;8.67;;
1505;SDS011;744;51.436;7.356;2023-06-01T02:43:52;15.30;;;8.77;;
1505;SDS011;744;51.436;7.356;2023-06-01T02:46:20;17.13;;;10.33;;
1505;SDS011;744;51.436;7.356;2023-06-01T02:48:51;11.50;;;9.30;;
1505;SDS011;744;51.436;7.356;2023-06-01T02:51:19;19.07;;;10.13;;
1505;SDS011;744;51.436;7.356;2023-06-01T03:00:23;29.60;;;14.97;;
1505;SDS011;744;51.436;7.356;2023-06-01T03:02:50;25.23;;;15.70;;
1505;SDS011;744;51.436;7.356;2023-06-01T03:05:19;29.37;;;17.20;;
1505;SDS011;744;51.436;7.356;2023-06-01T03:07:47;31.23;;;20.13;;
1505;SDS011;744;51.436;7.356;2023-06-01T03:10:14;30.47;;;20.27;;
1505;SDS011;744;51.436;7.356;2023-06-01T03:12:44;40.33;;;26.63;;
1505;SDS011;744;51.436;7.356;2023-06-01T03:15:11;46.37;;;30.30;;
1505;SDS011;744;51.436;7.356;2023-06-01T03:17:37;55.87;;;33.80;;
1505;SDS011;744;51.436;7.356;2023-06-01T03:20:05;61.00;;;36.00;;
1505;SDS011;744;51.436;7.356;2023-06-01T03:22:41;63.60;;;37.07;;
1505;SDS011;744;51.436;7.356;2023-06-01T03:25:09;66.37;;;37.50;;
1505;SDS011;744;51.436;7.356;2023-06-01T03:27:40;59.17;;;37.40;;
1505;SDS011;744;51.436;7.356;2023-06-01T03:30:08;64.13;;;37.67;;
1505;SDS011;744;51.436;7.356;2023-06-01T03:32:37;51.47;;;35.23;;
1505;SDS011;744;51.436;7.356;2023-06-01T03:35:05;49.70;;;34.53;;
1505;SDS011;744;51.436;7.356;2023-06-01T03:37:34;40.90;;;32.70;;
1505;SDS011;744;51.436;7.356;2023-06-01T03:40:03;46.27;;;33.77;;
1505;SDS011;744;51.436;7.356;2023-06-01T03:46:23;48.17;;;34.00;;
1505;SDS011;744;51.436;7.356;2023-06-01T03:48:51;46.50;;;32.47;;
1505;SDS011;744;51.436;7.356;2023-06-01T03:51:18;46.90;;;35.53;;
1505;SDS011;744;51.436;7.356;2023-06-01T03:53:44;42.67;;;31.97;;
1505;SDS011;744;51.436;7.356;2023-06-01T03:56:11;52.13;;;35.00;;
1505;SDS011;744;51.436;7.356;2023-06-01T03:58:38;51.53;;;35.77;;
1505;SDS011;744;51.436;7.356;2023-06-01T04:01:05;51.97;;;35.67;;
1505;SDS011;744;51.436;7.356;2023-06-01T04:07:32;46.53;;;31.17;;
1505;SDS011;744;51.436;7.356;2023-06-01T04:10:00;29.70;;;19.60;;
1505;SDS011;744;51.436;7.356;2023-06-01T04:12:30;34.33;;;23.90;;
1505;SDS011;744;51.436;7.356;2023-06-01T04:14:57;43.03;;;26.13;;
1505;SDS011;744;51.436;7.356;2023-06-01T04:17:24;33.10;;;24.63;;
1505;SDS011;744;51.436;7.356;2023-06-01T04:19:51;38.37;;;27.17;;
1505;SDS011;744;51.436;7.356;2023-06-01T04:22:20;40.17;;;26.33;;
1505;SDS011;744;51.436;7.356;2023-06-01T04:24:47;36.33;;;26.40;;
1505;SDS011;744;51.436;7.356;2023-06-01T04:27:14;36.30;;;23.43;;
1505;SDS011;744;51.436;7.356;2023-06-01T04:29:45;38.03;;;25.63;;
1505;SDS011;744;51.436;7.356;2023-06-01T04:32:14;40.10;;;23.00;;
1505;SDS011;744;51.436;7.356;2023-06-01T04:34:47;30.73;;;22.13;;
1505;SDS011;744;51.436;7.356;2023-06-01T04:41:04;30.83;;;17.90;;
1505;SDS011;744;51.436;7.356;2023-06-01T04:43:32;31.37;;;19.70;;
1505;SDS011;744;51.436;7.356;2023-06-01T04:45:58;18.67;;;15.10;;
1505;SDS011;744;51.436;7.356;2023-06-01T04:48:30;20.27;;;16.27;;
1505;SDS011;744;51.436;7.356;2023-06-01T04:50:58;29.47;;;16.50;;
1505;SDS011;744;51.436;7.356;2023-06-01T04:53:25;20.97;;;15.27;;
1505;SDS011;744;51.436;7.356;2023-06-01T04:59:56;30.10;;;23.03;;
1505;SDS011;744;51.436;7.356;2023-06-01T05:02:24;31.43;;;22.13;;
1505;SDS011;744;51.436;7.356;2023-06-01T05:04:52;22.60;;;17.03;;
1505;SDS011;744;51.436;7.356;2023-06-01T05:07:19;25.67;;;16.80;;
1505;SDS011;744;51.436;7.356;2023-06-01T05:09:47;25.37;;;16.07;;
1505;SDS011;744;51.436;7.356;2023-06-01T05:16:05;18.70;;;13.93;;
1505;SDS011;744;51.436;7.356;2023-06-01T05:22:20;17.70;;;13.07;;
1505;SDS011;744;51.436;7.356;2023-06-01T05:24:48;22.40;;;14.80;;
1505;SDS011;744;51.436;7.356;2023-06-01T05:38:36;18.83;;;14.73;;
1505;SDS011;744;51.436;7.356;2023-06-01T05:41:05;20.47;;;15.00;;
1505;SDS011;744;51.436;7.356;2023-06-01T05:47:19;20.50;;;14.37;;
1505;SDS011;744;51.436;7.356;2023-06-01T05:49:49;21.10;;;17.33;;
1505;SDS011;744;51.436;7.356;2023-06-01T05:52:17;23.70;;;16.23;;
1505;SDS011;744;51.436;7.356;2023-06-01T05:58:31;20.37;;;14.40;;
1505;SDS011;744;51.436;7.356;2023-06-01T06:00:58;18.70;;;15.13;;
1505;SDS011;744;51.436;7.356;2023-06-01T06:11:00;26.47;;;20.60;;
1505;SDS011;744;51.436;7.356;2023-06-01T06:13:27;29.60;;;22.40;;
1505;SDS011;744;51.436;7.356;2023-06-01T06:15:54;35.33;;;23.80;;
1505;SDS011;744;51.436;7.356;2023-06-01T06:18:22;26.97;;;23.90;;
1505;SDS011;744;51.436;7.356;2023-06-01T06:20:49;30.67;;;23.57;;
1505;SDS011;744;51.436;7.356;2023-06-01T06:27:02;35.10;;;27.00;;
1505;SDS011;744;51.436;7.356;2023-06-01T06:29:29;29.37;;;24.47;;
1505;SDS011;744;51.436;7.356;2023-06-01T06:31:57;34.43;;;24.20;;
1505;SDS011;744;51.436;7.356;2023-06-01T06:34:24;29.47;;;24.43;;
1505;SDS011;744;51.436;7.356;2023-06-01T06:36:51;34.13;;;26.20;;
1505;SDS011;744;51.436;7.356;2023-06-01T06:39:21;32.07;;;25.60;;
1505;SDS011;744;51.436;7.356;2023-06-01T06:41:48;38.50;;;28.17;;
1505;SDS011;744;51.436;7.356;2023-06-01T06:44:15;34.73;;;26.70;;
1505;SDS011;744;51.436;7.356;2023-06-01T06:46:41;36.37;;;28.50;;
1505;SDS011;744;51.436;7.356;2023-06-01T06:49:08;38.27;;;28.77;;
1505;SDS011;744;51.436;7.356;2023-06-01T06:51:36;47.97;;;31.80;;
1505;SDS011;744;51.436;7.356;2023-06-01T07:09:28;36.83;;;29.10;;
1505;SDS011;744;51.436;7.356;2023-06-01T07:11:55;39.47;;;30.93;;
1505;SDS011;744;51.436;7.356;2023-06-01T07:14:22;37.13;;;30.50;;
1505;SDS011;744;51.436;7.356;2023-06-01T07:16:49;37.63;;;29.53;;
1505;SDS011;744;51.436;7.356;2023-06-01T07:19:17;35.20;;;29.00;;
1505;SDS011;744;51.436;7.356;2023-06-01T07:21:44;37.07;;;29.20;;
1505;SDS011;744;51.436;7.356;2023-06-01T07:24:10;40.50;;;32.20;;
1505;SDS011;744;51.436;7.356;2023-06-01T07:26:38;45.83;;;31.20;;
1505;SDS011;744;51.436;7.356;2023-06-01T07:29:05;36.80;;;29.80;;
1505;SDS011;744;51.436;7.356;2023-06-01T07:31:32;36.77;;;28.97;;
1505;SDS011;744;51.436;7.356;2023-06-01T07:34:01;33.87;;;26.00;;
1505;SDS011;744;51.436;7.356;2023-06-01T07:36:28;35.83;;;28.63;;
1505;SDS011;744;51.436;7.356;2023-06-01T07:39:01;35.00;;;30.80;;
1505;SDS011;744;51.436;7.356;2023-06-01T07:41:28;44.67;;;33.23;;
1505;SDS011;744;51.436;7.356;2023-06-01T07:43:55;40.43;;;33.50;;
1505;SDS011;744;51.436;7.356;2023-06-01T07:46:21;46.40;;;36.00;;
1505;SDS011;744;51.436;7.356;2023-06-01T07:48:48;41.93;;;34.00;;
1505;SDS011;744;51.436;7.356;2023-06-01T07:51:16;46.03;;;35.30;;
1505;SDS011;744;51.436;7.356;2023-06-01T07:53:43;42.30;;;32.97;;
1505;SDS011;744;51.436;7.356;2023-06-01T07:56:10;43.47;;;33.20;;
1505;SDS011;744;51.436;7.356;2023-06-01T07:58:37;38.13;;;31.07;;
1505;SDS011;744;51.436;7.356;2023-06-01T08:01:04;45.17;;;31.23;;
1505;SDS011;744;51.436;7.356;2023-06-01T08:03:31;54.93;;;31.80;;
1505;SDS011;744;51.436;7.356;2023-06-01T08:05:59;42.43;;;32.37;;
1505;SDS011;744;51.436;7.356;2023-06-01T08:08:29;35.23;;;23.33;;
1505;SDS011;744;51.436;7.356;2023-06-01T08:10:56;33.10;;;24.83;;
1505;SDS011;744;51.436;7.356;2023-06-01T08:13:23;27.70;;;24.20;;
1505;SDS011;744;51.436;7.356;2023-06-01T08:15:52;26.97;;;24.03;;
1505;SDS011;744;51.436;7.356;2023-06-01T08:18:19;31.87;;;26.03;;
1505;SDS011;744;51.436;7.356;2023-06-01T08:20:48;31.23;;;24.70;;
1505;SDS011;744;51.436;7.356;2023-06-01T08:23:15;32.63;;;24.70;;
1505;SDS011;744;51.436;7.356;2023-06-01T08:25:49;32.83;;;26.90;;
1505;SDS011;744;51.436;7.356;2023-06-01T08:28:15;32.73;;;25.07;;
1505;SDS011;744;51.436;7.356;2023-06-01T08:30:42;29.43;;;21.33;;
1505;SDS011;744;51.436;7.356;2023-06-01T08:33:09;28.77;;;23.60;;
1505;SDS011;744;51.436;7.356;2023-06-01T08:35:36;26.47;;;23.10;;
1505;SDS011;744;51.436;7.356;2023-06-01T08:38:04;31.53;;;25.10;;
1505;SDS011;744;51.436;7.356;2023-06-01T08:40:31;35.97;;;25.67;;
1505;SDS011;744;51.436;7.356;2023-06-01T08:43:09;27.67;;;23.53;;
1505;SDS011;744;51.436;7.356;2023-06-01T08:45:48;23.90;;;21.40;;
1505;SDS011;744;51.436;7.356;2023-06-01T08:48:18;26.87;;;21.80;;
1505;SDS011;744;51.436;7.356;2023-06-01T08:50:49;26.60;;;23.80;;
1505;SDS011;744;51.436;7.356;2023-06-01T08:53:17;20.90;;;17.03;;
1505;SDS011;744;51.436;7.356;2023-06-01T08:55:50;21.87;;;19.10;;
1505;SDS011;744;51.436;7.356;2023-06-01T08:58:19;22.47;;;17.40;;
1505;SDS011;744;51.436;7.356;2023-06-01T09:00:51;20.30;;;16.83;;
1505;SDS011;744;51.436;7.356;2023-06-01T09:03:20;16.93;;;14.70;;
1505;SDS011;744;51.436;7.356;2023-06-01T09:05:47;16.63;;;14.80;;
1505;SDS011;744;51.436;7.356;2023-06-01T09:08:14;16.13;;;14.17;;
1505;SDS011;744;51.436;7.356;2023-06-01T09:10:42;44.63;;;18.23;;
1505;SDS011;744;51.436;7.356;2023-06-01T09:13:09;21.93;;;17.73;;
1505;SDS011;744;51.436;7.356;2023-06-01T09:15:37;17.53;;;14.77;;
1505;SDS011;744;51.436;7.356;2023-06-01T09:18:18;18.13;;;16.27;;
1505;SDS011;744;51.436;7.356;2023-06-01T09:20:45;13.13;;;11.43;;
1505;SDS011;744;51.436;7.356;2023-06-01T09:23:22;16.27;;;11.27;;
1505;SDS011;744;51.436;7.356;2023-06-01T09:31:34;19.37;;;12.23;;
1505;SDS011;744;51.436;7.356;2023-06-01T09:34:04;21.20;;;13.73;;
1505;SDS011;744;51.436;7.356;2023-06-01T09:36:32;20.57;;;17.70;;
1505;SDS011;744;51.436;7.356;2023-06-01T09:39:00;18.33;;;15.53;;
1505;SDS011;744;51.436;7.356;2023-06-01T09:41:51;16.77;;;14.90;;
1505;SDS011;744;51.436;7.356;2023-06-01T09:44:22;17.13;;;15.43;;
1505;SDS011;744;51.436;7.356;2023-06-01T09:46:54;24.80;;;16.30;;
1505;SDS011;744;51.436;7.356;2023-06-01T09:49:23;17.37;;;13.93;;
1505;SDS011;744;51.436;7.356;2023-06-01T09:54:32;16.47;;;13.03;;
1505;SDS011;744;51.436;7.356;2023-06-01T09:57:02;15.00;;;12.80;;
1505;SDS011;744;51.436;7.356;2023-06-01T09:59:46;18.30;;;12.03;;
1505;SDS011;744;51.436;7.356;2023-06-01T10:02:14;23.20;;;12.47;;
1505;SDS011;744;51.436;7.356;2023-06-01T10:04:45;16.27;;;12.90;;
1505;SDS011;744;51.436;7.356;2023-06-01T10:07:19;15.00;;;11.47;;
1505;SDS011;744;51.436;7.356;2023-06-01T10:09:49;14.20;;;11.00;;
1505;SDS011;744;51.436;7.356;2023-06-01T10:12:17;14.40;;;11.10;;
1505;SDS011;744;51.436;7.356;2023-06-01T10:14:44;13.23;;;11.00;;
1505;SDS011;744;51.436;7.356;2023-06-01T10:17:11;22.47;;;11.03;;
1505;SDS011;744;51.436;7.356;2023-06-01T10:19:41;14.07;;;10.43;;
1505;SDS011;744;51.436;7.356;2023-06-01T10:22:09;16.70;;;11.77;;
1505;SDS011;744;51.436;7.356;2023-06-01T10:24:38;14.80;;;11.87;;
1505;SDS011;744;51.436;7.356;2023-06-01T10:29:41;15.33;;;12.57;;
1505;SDS011;744;51.436;7.356;2023-06-01T10:35:51;13.67;;;10.57;;
1505;SDS011;744;51.436;7.356;2023-06-01T10:40:39;14.93;;;10.17;;
1505;SDS011;744;51.436;7.356;2023-06-01T10:43:07;12.87;;;9.80;;
1505;SDS011;744;51.436;7.356;2023-06-01T10:45:54;14.27;;;8.77;;
1505;SDS011;744;51.436;7.356;2023-06-01T10:48:50;10.53;;;9.37;;
1505;SDS011;744;51.436;7.356;2023-06-01T10:51:19;11.00;;;9.87;;
1505;SDS011;744;51.436;7.356;2023-06-01T10:53:47;14.43;;;10.00;;
1505;SDS011;744;51.436;7.356;2023-06-01T11:01:41;13.50;;;10.33;;
1505;SDS011;744;51.436;7.356;2023-06-01T11:04:09;12.00;;;9.37;;
1505;SDS011;744;51.436;7.356;2023-06-01T11:06:40;21.27;;;10.03;;
1505;SDS011;744;51.436;7.356;2023-06-01T11:09:10;17.57;;;10.47;;
1505;SDS011;744;51.436;7.356;2023-06-01T11:14:15;16.53;;;10.80;;
1505;SDS011;744;51.436;7.356;2023-06-01T11:16:42;13.40;;;11.53;;
1505;SDS011;744;51.436;7.356;2023-06-01T11:19:09;11.97;;;10.20;;
1505;SDS011;744;51.436;7.356;2023-06-01T11:21:40;15.30;;;9.87;;
1505;SDS011;744;51.436;7.356;2023-06-01T11:26:39;16.80;;;11.23;;
1505;SDS011;744;51.436;7.356;2023-06-01T11:29:07;17.97;;;11.97;;
1505;SDS011;744;51.436;7.356;2023-06-01T11:31:44;15.60;;;11.40;;
1505;SDS011;744;51.436;7.356;2023-06-01T11:34:13;12.30;;;10.73;;
1505;SDS011;744;51.436;7.356;2023-06-01T11:36:42;15.47;;;11.23;;
1505;SDS011;744;51.436;7.356;2023-06-01T11:39:17;19.40;;;13.27;;
1505;SDS011;744;51.436;7.356;2023-06-01T11:41:49;15.73;;;11.87;;
1505;SDS011;744;51.436;7.356;2023-06-01T11:44:17;13.97;;;11.87;;
1505;SDS011;744;51.436;7.356;2023-06-01T11:46:51;15.67;;;12.77;;
1505;SDS011;744;51.436;7.356;2023-06-01T11:49:20;19.73;;;15.77;;
1505;SDS011;744;51.436;7.356;2023-06-01T11:51:47;24.97;;;15.20;;
1505;SDS011;744;51.436;7.356;2023-06-01T11:54:14;18.97;;;14.30;;
1505;SDS011;744;51.436;7.356;2023-06-01T11:56:41;17.37;;;14.93;;
1505;SDS011;744;51.436;7.356;2023-06-01T11:59:09;21.57;;;14.67;;
1505;SDS011;744;51.436;7.356;2023-06-01T12:01:46;16.90;;;14.33;;
1505;SDS011;744;51.436;7.356;2023-06-01T12:04:23;22.60;;;18.17;;
1505;SDS011;744;51.436;7.356;2023-06-01T12:06:51;19.10;;;12.43;;
1505;SDS011;744;51.436;7.356;2023-06-01T12:09:33;18.20;;;13.43;;
1505;SDS011;744;51.436;7.356;2023-06-01T12:12:01;26.10;;;16.83;;
1505;SDS011;744;51.436;7.356;2023-06-01T12:14:28;21.47;;;15.67;;
1505;SDS011;744;51.436;7.356;2023-06-01T12:16:59;17.00;;;14.57;;
1505;SDS011;744;51.436;7.356;2023-06-01T12:19:31;18.60;;;16.60;;
1505;SDS011;744;51.436;7.356;2023-06-01T12:21:58;21.17;;;16.70;;
1505;SDS011;744;51.436;7.356;2023-06-01T12:24:30;19.53;;;17.43;;
1505;SDS011;744;51.436;7.356;2023-06-01T12:27:00;19.60;;;17.60;;
1505;SDS011;744;51.436;7.356;2023-06-01T12:29:38;20.87;;;17.40;;
1505;SDS011;744;51.436;7.356;2023-06-01T12:32:08;20.13;;;17.10;;
1505;SDS011;744;51.436;7.356;2023-06-01T12:34:37;24.53;;;16.87;;
1505;SDS011;744;51.436;7.356;2023-06-01T12:37:12;18.87;;;16.57;;
1505;SDS011;744;51.436;7.356;2023-06-01T12:39:40;22.07;;;16.63;;
1505;SDS011;744;51.436;7.356;2023-06-01T12:42:08;25.43;;;15.97;;
1505;SDS011;744;51.436;7.356;2023-06-01T12:44:37;23.27;;;16.70;;
1505;SDS011;744;51.436;7.356;2023-06-01T12:47:06;17.40;;;15.00;;
1505;SDS011;744;51.436;7.356;2023-06-01T12:49:34;19.43;;;16.73;;
1505;SDS011;744;51.436;7.356;2023-06-01T12:52:01;20.97;;;16.00;;
1505;SDS011;744;51.436;7.356;2023-06-01T12:54:28;18.30;;;16.40;;
1505;SDS011;744;51.436;7.356;2023-06-01T12:56:55;18.40;;;15.70;;
1505;SDS011;744;51.436;7.356;2023-06-01T12:59:22;21.83;;;16.87;;
1505;SDS011;744;51.436;7.356;2023-06-01T13:01:50;17.33;;;14.80;;
1505;SDS011;744;51.436;7.356;2023-06-01T13:04:17;18.43;;;16.47;;
1505;SDS011;744;51.436;7.356;2023-06-01T13:06:44;20.50;;;14.13;;
1505;SDS011;744;51.436;7.356;2023-06-01T13:09:11;23.20;;;16.63;;
1505;SDS011;744;51.436;7.356;2023-06-01T13:11:40;16.67;;;14.70;;
1505;SDS011;744;51.436;7.356;2023-06-01T13:14:07;22.30;;;14.73;;
1505;SDS011;744;51.436;7.356;2023-06-01T13:16:34;18.73;;;15.90;;
1505;SDS011;744;51.436;7.356;2023-06-01T13:19:01;18.43;;;14.67;;
1505;SDS011;744;51.436;7.356;2023-06-01T13:21:30;30.10;;;15.30;;
1505;SDS011;744;51.436;7.356;2023-06-01T13:23:59;17.47;;;14.13;;
1505;SDS011;744;51.436;7.356;2023-06-01T13:26:26;19.13;;;14.37;;
1505;SDS011;744;51.436;7.356;2023-06-01T13:28:53;40.27;;;16.70;;
1505;SDS011;744;51.436;7.356;2023-06-01T13:31:20;16.23;;;14.53;;
1505;SDS011;744;51.436;7.356;2023-06-01T13:33:49;20.93;;;13.30;;
1505;SDS011;744;51.436;7.356;2023-06-01T13:36:16;15.33;;;12.73;;
1505;SDS011;744;51.436;7.356;2023-06-01T13:38:43;14.37;;;12.73;;
1505;SDS011;744;51.436;7.356;2023-06-01T13:41:10;18.77;;;13.70;;
1505;SDS011;744;51.436;7.356;2023-06-01T13:43:37;15.63;;;13.67;;
1505;SDS011;744;51.436;7.356;2023-06-01T13:46:06;17.80;;;13.87;;
1505;SDS011;744;51.436;7.356;2023-06-01T13:48:34;15.20;;;12.70;;
1505;SDS011;744;51.436;7.356;2023-06-01T13:51:01;13.83;;;12.03;;
1505;SDS011;744;51.436;7.356;2023-06-01T13:53:28;17.90;;;12.40;;
1505;SDS011;744;51.436;7.356;2023-06-01T13:55:55;15.63;;;10.77;;
1505;SDS011;744;51.436;7.356;2023-06-01T13:58:22;12.00;;;10.57;;
1505;SDS011;744;51.436;7.356;2023-06-01T14:00:49;12.47;;;10.53;;
1505;SDS011;744;51.436;7.356;2023-06-01T14:03:17;17.50;;;10.70;;
1505;SDS011;744;51.436;7.356;2023-06-01T14:05:45;11.50;;;9.43;;
1505;SDS011;744;51.436;7.356;2023-06-01T14:08:32;13.50;;;9.07;;
1505;SDS011;744;51.436;7.356;2023-06-01T14:11:00;13.23;;;9.50;;
1505;SDS011;744;51.436;7.356;2023-06-01T14:13:27;13.87;;;9.37;;
1505;SDS011;744;51.436;7.356;2023-06-01T14:15:54;10.43;;;9.00;;
1505;SDS011;744;51.436;7.356;2023-06-01T14:18:21;9.33;;;7.73;;
1505;SDS011;744;51.436;7.356;2023-06-01T14:20:48;9.47;;;8.30;;
1505;SDS011;744;51.436;7.356;2023-06-01T14:23:15;10.90;;;8.67;;
1505;SDS011;744;51.436;7.356;2023-06-01T14:25:42;12.87;;;8.50;;
1505;SDS011;744;51.436;7.356;2023-06-01T14:28:08;9.63;;;8.03;;
1505;SDS011;744;51.436;7.356;2023-06-01T14:30:35;10.47;;;9.37;;
1505;SDS011;744;51.436;7.356;2023-06-01T14:33:02;25.63;;;8.00;;
1505;SDS011;744;51.436;7.356;2023-06-01T14:35:29;9.10;;;8.20;;
1505;SDS011;744;51.436;7.356;2023-06-01T14:37:56;11.00;;;7.80;;
1505;SDS011;744;51.436;7.356;2023-06-01T14:40:23;16.63;;;8.97;;
1505;SDS011;744;51.436;7.356;2023-06-01T14:42:50;12.00;;;8.43;;
1505;SDS011;744;51.436;7.356;2023-06-01T14:45:17;10.73;;;8.87;;
1505;SDS011;744;51.436;7.356;2023-06-01T14:47:45;9.20;;;7.43;;
1505;SDS011;744;51.436;7.356;2023-06-01T14:50:12;11.00;;;9.07;;
1505;SDS011;744;51.436;7.356;2023-06-01T14:52:39;11.23;;;8.40;;
1505;SDS011;744;51.436;7.356;2023-06-01T14:55:06;10.27;;;8.43;;
1505;SDS011;744;51.436;7.356;2023-06-01T14:57:33;9.37;;;8.47;;
1505;SDS011;744;51.436;7.356;2023-06-01T15:00:00;11.93;;;8.47;;
1505;SDS011;744;51.436;7.356;2023-06-01T15:02:30;9.80;;;8.43;;
1505;SDS011;744;51.436;7.356;2023-06-01T15:04:58;10.57;;;9.30;;
1505;SDS011;744;51.436;7.356;2023-06-01T15:07:25;10.83;;;8.67;;
1505;SDS011;744;51.436;7.356;2023-06-01T15:09:52;12.20;;;9.27;;
1505;SDS011;744;51.436;7.356;2023-06-01T15:12:19;9.70;;;7.50;;
1505;SDS011;744;51.436;7.356;2023-06-01T15:14:47;10.33;;;7.87;;
1505;SDS011;744;51.436;7.356;2023-06-01T15:17:14;8.47;;;7.60;;
1505;SDS011;744;51.436;7.356;2023-06-01T15:19:41;12.70;;;7.40;;
1505;SDS011;744;51.436;7.356;2023-06-01T15:22:08;12.40;;;8.40;;
1505;SDS011;744;51.436;7.356;2023-06-01T15:24:36;9.00;;;8.10;;
1505;SDS011;744;51.436;7.356;2023-06-01T15:27:04;11.90;;;10.00;;
1505;SDS011;744;51.436;7.356;2023-06-01T15:29:32;11.70;;;8.47;;
1505;SDS011;744;51.436;7.356;2023-06-01T15:31:59;9.43;;;8.50;;
1505;SDS011;744;51.436;7.356;2023-06-01T15:34:26;9.03;;;7.87;;
1505;SDS011;744;51.436;7.356;2023-06-01T15:36:53;9.33;;;8.40;;
1505;SDS011;744;51.436;7.356;2023-06-01T15:39:21;7.27;;;6.57;;
1505;SDS011;744;51.436;7.356;2023-06-01T15:41:48;8.17;;;7.33;;
1505;SDS011;744;51.436;7.356;2023-06-01T15:44:22;8.90;;;7.93;;
1505;SDS011;744;51.436;7.356;2023-06-01T15:46:49;10.40;;;8.03;;
1505;SDS011;744;51.436;7.356;2023-06-01T15:49:17;11.63;;;7.90;;
1505;SDS011;744;51.436;7.356;2023-06-01T15:51:44;8.07;;;7.27;;
1505;SDS011;744;51.436;7.356;2023-06-01T15:54:11;8.77;;;7.50;;
1505;SDS011;744;51.436;7.356;2023-06-01T15:56:38;9.00;;;8.10;;
1505;SDS011;744;51.436;7.356;2023-06-01T15:59:05;9.30;;;8.07;;
1505;SDS011;744;51.436;7.356;2023-06-01T16:01:32;10.97;;;7.43;;
1505;SDS011;744;51.436;7.356;2023-06-01T16:03:59;8.33;;;7.53;;
1505;SDS011;744;51.436;7.356;2023-06-01T16:06:26;9.20;;;7.50;;
1505;SDS011;744;51.436;7.356;2023-06-01T16:08:53;8.47;;;6.77;;
1505;SDS011;744;51.436;7.356;2023-06-01T16:11:19;7.10;;;6.03;;
1505;SDS011;744;51.436;7.356;2023-06-01T16:13:46;7.60;;;6.70;;
1505;SDS011;744;51.436;7.356;2023-06-01T16:16:13;7.73;;;6.33;;
1505;SDS011;744;51.436;7.356;2023-06-01T16:18:42;7.30;;;6.20;;
1505;SDS011;744;51.436;7.356;2023-06-01T16:21:09;5.93;;;5.43;;
1505;SDS011;744;51.436;7.356;2023-06-01T16:23:35;5.80;;;5.30;;
1505;SDS011;744;51.436;7.356;2023-06-01T16:26:02;7.33;;;5.90;;
1505;SDS011;744;51.436;7.356;2023-06-01T16:28:30;5.80;;;4.70;;
1505;SDS011;744;51.436;7.356;2023-06-01T16:30:57;7.40;;;5.07;;
1505;SDS011;744;51.436;7.356;2023-06-01T16:33:24;5.63;;;5.03;;
1505;SDS011;744;51.436;7.356;2023-06-01T16:35:54;10.03;;;5.30;;
1505;SDS011;744;51.436;7.356;2023-06-01T16:38:21;8.47;;;5.70;;
1505;SDS011;744;51.436;7.356;2023-06-01T16:40:48;5.10;;;4.70;;
1505;SDS011;744;51.436;7.356;2023-06-01T16:43:15;5.50;;;5.00;;
1505;SDS011;744;51.436;7.356;2023-06-01T16:45:45;5.93;;;5.20;;
1505;SDS011;744;51.436;7.356;2023-06-01T16:48:12;5.47;;;4.67;;
1505;SDS011;744;51.436;7.356;2023-06-01T16:50:39;7.17;;;5.37;;
1505;SDS011;744;51.436;7.356;2023-06-01T16:53:10;6.50;;;5.40;;
1505;SDS011;744;51.436;7.356;2023-06-01T16:55:37;5.13;;;4.47;;
1505;SDS011;744;51.436;7.356;2023-06-01T16:58:04;5.60;;;4.63;;
1505;SDS011;744;51.436;7.356;2023-06-01T17:00:31;5.30;;;4.80;;
1505;SDS011;744;51.436;7.356;2023-06-01T17:02:58;6.70;;;5.87;;
1505;SDS011;744;51.436;7.356;2023-06-01T17:05:25;5.90;;;5.30;;
1505;SDS011;744;51.436;7.356;2023-06-01T17:07:53;8.60;;;5.23;;
1505;SDS011;744;51.436;7.356;2023-06-01T17:10:20;6.47;;;5.70;;
1505;SDS011;744;51.436;7.356;2023-06-01T17:12:47;19.33;;;7.77;;
1505;SDS011;744;51.436;7.356;2023-06-01T17:15:16;7.50;;;5.30;;
1505;SDS011;744;51.436;7.356;2023-06-01T17:17:43;7.73;;;5.27;;
1505;SDS011;744;51.436;7.356;2023-06-01T17:20:10;7.73;;;6.10;;
1505;SDS011;744;51.436;7.356;2023-06-01T17:22:37;6.30;;;5.00;;
1505;SDS011;744;51.436;7.356;2023-06-01T17:25:06;6.27;;;5.20;;
1505;SDS011;744;51.436;7.356;2023-06-01T17:27:40;8.37;;;5.30;;
1505;SDS011;744;51.436;7.356;2023-06-01T17:30:10;6.00;;;4.00;;